sensor_id;sensor_type;location;lat;lon;timestamp;P1;durP1;ratioP1;P2;durP2;ratioP2
14066;SDS011;7108;42.684;23.350;2023-02-15T00:01:47;216.67;;;80.77;;
14066;SDS011;7108;42.684;23.350;2023-02-15T00:04:13;218.30;;;83.37;;
14066;SDS011;7108;42.684;23.350;2023-02-15T00:06:40;210.07;;;79.65;;
14066;SDS011;7108;42.684;23.350;2023-02-15T00:09:06;208.63;;;78.57;;
14066;SDS011;7108;42.684;23.350;2023-02-15T00:11:33;205.10;;;80.78;;
14066;SDS011;7108;42.684;23.350;2023-02-15T00:14:08;197.38;;;80.28;;
14066;SDS011;7108;42.684;23.350;2023-02-15T00:16:34;197.77;;;78.78;;
14066;SDS011;7108;42.684;23.350;2023-02-15T00:19:00;195.90;;;76.80;;
14066;SDS011;7108;42.684;23.350;2023-02-15T00:21:29;195.52;;;79.55;;
14066;SDS011;7108;42.684;23.350;2023-02-15T00:23:56;205.88;;;77.78;;
14066;SDS011;7108;42.684;23.350;2023-02-15T00:26:22;218.75;;;83.00;;
14066;SDS011;7108;42.684;23.350;2023-02-15T00:28:48;206.53;;;79.87;;
14066;SDS011;7108;42.684;23.350;2023-02-15T00:31:13;223.70;;;81.63;;
14066;SDS011;7108;42.684;23.350;2023-02-15T00:33:39;204.77;;;78.27;;
14066;SDS011;7108;42.684;23.350;2023-02-15T00:36:05;188.93;;;77.47;;
14066;SDS011;7108;42.684;23.350;2023-02-15T00:38:33;202.15;;;78.18;;
14066;SDS011;7108;42.684;23.350;2023-02-15T00:41:00;202.13;;;80.15;;
14066;SDS011;7108;42.684;23.350;2023-02-15T00:43:27;200.10;;;77.43;;
14066;SDS011;7108;42.684;23.350;2023-02-15T00:45:53;210.88;;;80.30;;
14066;SDS011;7108;42.684;23.350;2023-02-15T00:48:19;225.00;;;83.17;;
14066;SDS011;7108;42.684;23.350;2023-02-15T00:50:46;215.10;;;79.70;;
14066;SDS011;7108;42.684;23.350;2023-02-15T00:53:13;213.43;;;80.32;;
14066;SDS011;7108;42.684;23.350;2023-02-15T00:55:39;207.10;;;78.70;;
14066;SDS011;7108;42.684;23.350;2023-02-15T00:58:05;192.20;;;77.32;;
14066;SDS011;7108;42.684;23.350;2023-02-15T01:00:31;200.40;;;77.82;;
14066;SDS011;7108;42.684;23.350;2023-02-15T01:02:57;191.40;;;76.10;;
14066;SDS011;7108;42.684;23.350;2023-02-15T01:05:23;224.23;;;79.10;;
14066;SDS011;7108;42.684;23.350;2023-02-15T01:07:48;209.40;;;77.70;;
14066;SDS011;7108;42.684;23.350;2023-02-15T01:10:14;216.30;;;79.27;;
14066;SDS011;7108;42.684;23.350;2023-02-15T01:12:39;200.83;;;77.50;;
14066;SDS011;7108;42.684;23.350;2023-02-15T01:15:05;193.97;;;77.33;;
14066;SDS011;7108;42.684;23.350;2023-02-15T01:17:30;187.80;;;76.63;;
14066;SDS011;7108;42.684;23.350;2023-02-15T01:19:56;202.00;;;77.40;;
14066;SDS011;7108;42.684;23.350;2023-02-15T01:22:21;211.37;;;77.47;;
14066;SDS011;7108;42.684;23.350;2023-02-15T01:24:48;221.37;;;79.83;;
14066;SDS011;7108;42.684;23.350;2023-02-15T01:27:15;217.48;;;78.53;;
14066;SDS011;7108;42.684;23.350;2023-02-15T01:29:40;208.20;;;78.07;;
14066;SDS011;7108;42.684;23.350;2023-02-15T01:32:05;190.70;;;75.73;;
14066;SDS011;7108;42.684;23.350;2023-02-15T01:34:31;194.93;;;76.13;;
14066;SDS011;7108;42.684;23.350;2023-02-15T01:36:56;202.53;;;77.77;;
14066;SDS011;7108;42.684;23.350;2023-02-15T01:39:22;209.60;;;77.13;;
14066;SDS011;7108;42.684;23.350;2023-02-15T01:41:47;207.17;;;77.57;;
14066;SDS011;7108;42.684;23.350;2023-02-15T01:47:07;206.77;;;79.20;;
14066;SDS011;7108;42.684;23.350;2023-02-15T01:49:35;196.30;;;76.00;;
14066;SDS011;7108;42.684;23.350;2023-02-15T01:52:02;185.85;;;76.82;;
14066;SDS011;7108;42.684;23.350;2023-02-15T01:54:29;204.10;;;78.17;;
14066;SDS011;7108;42.684;23.350;2023-02-15T01:56:59;196.93;;;76.88;;
14066;SDS011;7108;42.684;23.350;2023-02-15T01:59:28;186.80;;;72.97;;
14066;SDS011;7108;42.684;23.350;2023-02-15T02:01:55;201.73;;;75.93;;
14066;SDS011;7108;42.684;23.350;2023-02-15T02:04:26;203.10;;;78.45;;
14066;SDS011;7108;42.684;23.350;2023-02-15T02:06:54;206.85;;;78.60;;
14066;SDS011;7108;42.684;23.350;2023-02-15T02:09:19;221.10;;;80.60;;
14066;SDS011;7108;42.684;23.350;2023-02-15T02:11:46;211.87;;;79.70;;
14066;SDS011;7108;42.684;23.350;2023-02-15T02:14:13;214.88;;;80.20;;
14066;SDS011;7108;42.684;23.350;2023-02-15T02:36:08;214.55;;;79.13;;
14066;SDS011;7108;42.684;23.350;2023-02-15T02:41:50;195.15;;;74.82;;
14066;SDS011;7108;42.684;23.350;2023-02-15T02:50:13;237.75;;;81.00;;
14066;SDS011;7108;42.684;23.350;2023-02-15T02:55:11;200.05;;;76.30;;
14066;SDS011;7108;42.684;23.350;2023-02-15T02:57:54;214.65;;;79.28;;
14066;SDS011;7108;42.684;23.350;2023-02-15T03:00:26;205.95;;;77.32;;
14066;SDS011;7108;42.684;23.350;2023-02-15T03:02:58;208.73;;;78.05;;
14066;SDS011;7108;42.684;23.350;2023-02-15T03:05:30;197.30;;;75.47;;
14066;SDS011;7108;42.684;23.350;2023-02-15T03:07:59;188.57;;;74.50;;
14066;SDS011;7108;42.684;23.350;2023-02-15T03:10:31;196.45;;;76.13;;
14066;SDS011;7108;42.684;23.350;2023-02-15T03:12:59;189.07;;;75.78;;
14066;SDS011;7108;42.684;23.350;2023-02-15T03:15:27;212.20;;;77.67;;
14066;SDS011;7108;42.684;23.350;2023-02-15T03:18:23;209.70;;;77.45;;
14066;SDS011;7108;42.684;23.350;2023-02-15T03:20:53;212.93;;;78.60;;
14066;SDS011;7108;42.684;23.350;2023-02-15T03:23:22;219.63;;;79.13;;
14066;SDS011;7108;42.684;23.350;2023-02-15T03:25:52;208.60;;;79.47;;
14066;SDS011;7108;42.684;23.350;2023-02-15T03:28:23;220.27;;;78.88;;
14066;SDS011;7108;42.684;23.350;2023-02-15T03:30:57;197.77;;;77.07;;
14066;SDS011;7108;42.684;23.350;2023-02-15T03:33:27;194.90;;;74.53;;
14066;SDS011;7108;42.684;23.350;2023-02-15T03:44:29;224.50;;;80.72;;
14066;SDS011;7108;42.684;23.350;2023-02-15T03:46:58;207.07;;;76.90;;
14066;SDS011;7108;42.684;23.350;2023-02-15T03:49:41;209.07;;;80.57;;
14066;SDS011;7108;42.684;23.350;2023-02-15T03:52:17;214.18;;;78.45;;
14066;SDS011;7108;42.684;23.350;2023-02-15T03:54:43;211.35;;;79.10;;
14066;SDS011;7108;42.684;23.350;2023-02-15T04:00:11;191.75;;;74.70;;
14066;SDS011;7108;42.684;23.350;2023-02-15T04:05:45;193.73;;;74.07;;
14066;SDS011;7108;42.684;23.350;2023-02-15T04:08:11;205.33;;;76.80;;
14066;SDS011;7108;42.684;23.350;2023-02-15T04:10:37;201.93;;;76.82;;
14066;SDS011;7108;42.684;23.350;2023-02-15T04:13:22;226.85;;;80.03;;
14066;SDS011;7108;42.684;23.350;2023-02-15T04:15:50;215.65;;;78.05;;
14066;SDS011;7108;42.684;23.350;2023-02-15T04:18:28;196.07;;;75.47;;
14066;SDS011;7108;42.684;23.350;2023-02-15T04:21:16;214.32;;;78.18;;
14066;SDS011;7108;42.684;23.350;2023-02-15T04:24:00;183.27;;;72.60;;
14066;SDS011;7108;42.684;23.350;2023-02-15T04:26:44;200.95;;;78.28;;
14066;SDS011;7108;42.684;23.350;2023-02-15T04:29:09;202.73;;;77.43;;
14066;SDS011;7108;42.684;23.350;2023-02-15T04:31:35;198.97;;;75.00;;
14066;SDS011;7108;42.684;23.350;2023-02-15T04:34:00;195.23;;;77.03;;
14066;SDS011;7108;42.684;23.350;2023-02-15T04:36:26;233.20;;;86.27;;
14066;SDS011;7108;42.684;23.350;2023-02-15T04:38:51;267.50;;;91.83;;
14066;SDS011;7108;42.684;23.350;2023-02-15T04:41:16;284.37;;;98.73;;
14066;SDS011;7108;42.684;23.350;2023-02-15T04:43:42;250.10;;;86.87;;
14066;SDS011;7108;42.684;23.350;2023-02-15T04:46:07;254.83;;;84.43;;
14066;SDS011;7108;42.684;23.350;2023-02-15T04:48:33;240.77;;;83.27;;
14066;SDS011;7108;42.684;23.350;2023-02-15T04:50:58;232.43;;;80.77;;
14066;SDS011;7108;42.684;23.350;2023-02-15T04:53:24;255.53;;;83.57;;
14066;SDS011;7108;42.684;23.350;2023-02-15T04:55:49;238.70;;;82.50;;
14066;SDS011;7108;42.684;23.350;2023-02-15T04:58:14;253.13;;;84.33;;
14066;SDS011;7108;42.684;23.350;2023-02-15T05:00:40;241.77;;;82.23;;
14066;SDS011;7108;42.684;23.350;2023-02-15T05:03:05;261.87;;;84.77;;
14066;SDS011;7108;42.684;23.350;2023-02-15T05:05:31;233.00;;;80.70;;
14066;SDS011;7108;42.684;23.350;2023-02-15T05:07:56;220.00;;;78.80;;
14066;SDS011;7108;42.684;23.350;2023-02-15T05:10:22;253.70;;;83.67;;
14066;SDS011;7108;42.684;23.350;2023-02-15T05:12:47;241.33;;;80.43;;
14066;SDS011;7108;42.684;23.350;2023-02-15T05:15:13;240.03;;;80.60;;
14066;SDS011;7108;42.684;23.350;2023-02-15T05:17:38;233.67;;;80.43;;
14066;SDS011;7108;42.684;23.350;2023-02-15T05:20:04;236.67;;;80.03;;
14066;SDS011;7108;42.684;23.350;2023-02-15T05:22:30;241.75;;;80.85;;
14066;SDS011;7108;42.684;23.350;2023-02-15T05:24:55;228.13;;;78.73;;
14066;SDS011;7108;42.684;23.350;2023-02-15T05:27:39;223.20;;;80.07;;
14066;SDS011;7108;42.684;23.350;2023-02-15T05:30:23;242.23;;;80.45;;
14066;SDS011;7108;42.684;23.350;2023-02-15T05:32:48;234.73;;;79.70;;
14066;SDS011;7108;42.684;23.350;2023-02-15T05:35:15;257.73;;;86.33;;
14066;SDS011;7108;42.684;23.350;2023-02-15T05:37:40;246.07;;;79.30;;
14066;SDS011;7108;42.684;23.350;2023-02-15T05:40:06;208.53;;;76.77;;
14066;SDS011;7108;42.684;23.350;2023-02-15T05:42:32;235.43;;;84.22;;
14066;SDS011;7108;42.684;23.350;2023-02-15T05:44:58;206.73;;;75.57;;
14066;SDS011;7108;42.684;23.350;2023-02-15T05:47:23;273.17;;;89.00;;
14066;SDS011;7108;42.684;23.350;2023-02-15T05:49:51;289.03;;;99.37;;
14066;SDS011;7108;42.684;23.350;2023-02-15T05:52:17;265.13;;;85.45;;
14066;SDS011;7108;42.684;23.350;2023-02-15T05:54:42;266.77;;;85.20;;
14066;SDS011;7108;42.684;23.350;2023-02-15T05:57:08;237.03;;;80.00;;
14066;SDS011;7108;42.684;23.350;2023-02-15T05:59:33;245.83;;;81.87;;
14066;SDS011;7108;42.684;23.350;2023-02-15T06:01:59;240.20;;;79.97;;
14066;SDS011;7108;42.684;23.350;2023-02-15T06:04:24;262.83;;;82.73;;
14066;SDS011;7108;42.684;23.350;2023-02-15T06:06:50;250.30;;;82.87;;
14066;SDS011;7108;42.684;23.350;2023-02-15T06:09:15;244.57;;;80.97;;
14066;SDS011;7108;42.684;23.350;2023-02-15T06:11:43;275.23;;;86.30;;
14066;SDS011;7108;42.684;23.350;2023-02-15T06:14:09;240.70;;;79.38;;
14066;SDS011;7108;42.684;23.350;2023-02-15T06:16:35;250.70;;;82.97;;
14066;SDS011;7108;42.684;23.350;2023-02-15T06:19:01;233.10;;;81.70;;
14066;SDS011;7108;42.684;23.350;2023-02-15T06:21:27;246.77;;;81.28;;
14066;SDS011;7108;42.684;23.350;2023-02-15T06:23:54;266.15;;;82.43;;
14066;SDS011;7108;42.684;23.350;2023-02-15T06:26:19;251.07;;;80.03;;
14066;SDS011;7108;42.684;23.350;2023-02-15T06:28:44;238.00;;;81.03;;
14066;SDS011;7108;42.684;23.350;2023-02-15T06:31:10;243.30;;;83.00;;
14066;SDS011;7108;42.684;23.350;2023-02-15T06:33:35;235.13;;;82.37;;
14066;SDS011;7108;42.684;23.350;2023-02-15T06:36:01;224.47;;;77.43;;
14066;SDS011;7108;42.684;23.350;2023-02-15T06:38:28;249.27;;;79.63;;
14066;SDS011;7108;42.684;23.350;2023-02-15T06:40:54;237.07;;;78.60;;
14066;SDS011;7108;42.684;23.350;2023-02-15T06:43:19;254.20;;;79.30;;
14066;SDS011;7108;42.684;23.350;2023-02-15T06:45:45;249.20;;;81.03;;
14066;SDS011;7108;42.684;23.350;2023-02-15T06:48:10;236.00;;;80.77;;
14066;SDS011;7108;42.684;23.350;2023-02-15T06:50:36;254.40;;;82.57;;
14066;SDS011;7108;42.684;23.350;2023-02-15T06:53:01;228.00;;;79.57;;
14066;SDS011;7108;42.684;23.350;2023-02-15T06:55:27;224.30;;;76.73;;
14066;SDS011;7108;42.684;23.350;2023-02-15T06:57:53;241.70;;;80.87;;
14066;SDS011;7108;42.684;23.350;2023-02-15T07:00:18;257.00;;;81.63;;
14066;SDS011;7108;42.684;23.350;2023-02-15T07:02:45;230.55;;;76.32;;
14066;SDS011;7108;42.684;23.350;2023-02-15T07:05:10;248.87;;;81.13;;
14066;SDS011;7108;42.684;23.350;2023-02-15T07:07:36;238.83;;;79.10;;
14066;SDS011;7108;42.684;23.350;2023-02-15T07:10:02;240.53;;;79.50;;
14066;SDS011;7108;42.684;23.350;2023-02-15T07:12:27;224.13;;;76.63;;
14066;SDS011;7108;42.684;23.350;2023-02-15T07:15:10;238.43;;;76.43;;
14066;SDS011;7108;42.684;23.350;2023-02-15T07:17:38;240.70;;;78.68;;
14066;SDS011;7108;42.684;23.350;2023-02-15T07:20:13;236.85;;;80.07;;
14066;SDS011;7108;42.684;23.350;2023-02-15T07:22:41;232.93;;;78.25;;
14066;SDS011;7108;42.684;23.350;2023-02-15T07:25:08;234.05;;;78.40;;
14066;SDS011;7108;42.684;23.350;2023-02-15T07:27:35;237.50;;;78.55;;
14066;SDS011;7108;42.684;23.350;2023-02-15T07:30:00;226.17;;;78.10;;
14066;SDS011;7108;42.684;23.350;2023-02-15T07:32:29;249.90;;;81.43;;
14066;SDS011;7108;42.684;23.350;2023-02-15T07:34:56;235.02;;;79.53;;
14066;SDS011;7108;42.684;23.350;2023-02-15T07:37:21;238.18;;;76.93;;
14066;SDS011;7108;42.684;23.350;2023-02-15T07:39:47;223.07;;;75.13;;
14066;SDS011;7108;42.684;23.350;2023-02-15T07:42:13;233.30;;;77.93;;
14066;SDS011;7108;42.684;23.350;2023-02-15T07:44:38;260.90;;;87.87;;
14066;SDS011;7108;42.684;23.350;2023-02-15T07:47:04;249.43;;;82.20;;
14066;SDS011;7108;42.684;23.350;2023-02-15T07:49:29;225.17;;;76.23;;
14066;SDS011;7108;42.684;23.350;2023-02-15T07:51:55;211.57;;;75.20;;
14066;SDS011;7108;42.684;23.350;2023-02-15T07:54:20;267.10;;;83.43;;
14066;SDS011;7108;42.684;23.350;2023-02-15T07:56:45;242.97;;;79.47;;
14066;SDS011;7108;42.684;23.350;2023-02-15T07:59:11;200.67;;;74.30;;
14066;SDS011;7108;42.684;23.350;2023-02-15T08:01:37;238.30;;;77.97;;
14066;SDS011;7108;42.684;23.350;2023-02-15T08:04:04;230.77;;;82.03;;
14066;SDS011;7108;42.684;23.350;2023-02-15T08:06:32;268.08;;;85.35;;
14066;SDS011;7108;42.684;23.350;2023-02-15T08:08:59;225.88;;;77.20;;
14066;SDS011;7108;42.684;23.350;2023-02-15T08:11:31;251.68;;;80.90;;
14066;SDS011;7108;42.684;23.350;2023-02-15T08:14:06;218.32;;;79.95;;
14066;SDS011;7108;42.684;23.350;2023-02-15T08:16:41;233.25;;;81.40;;
14066;SDS011;7108;42.684;23.350;2023-02-15T08:19:09;240.68;;;81.93;;
14066;SDS011;7108;42.684;23.350;2023-02-15T08:21:36;231.52;;;84.22;;
14066;SDS011;7108;42.684;23.350;2023-02-15T08:24:03;229.25;;;77.53;;
14066;SDS011;7108;42.684;23.350;2023-02-15T08:26:30;252.05;;;78.65;;
14066;SDS011;7108;42.684;23.350;2023-02-15T08:28:57;209.57;;;73.70;;
14066;SDS011;7108;42.684;23.350;2023-02-15T08:31:23;243.73;;;82.25;;
14066;SDS011;7108;42.684;23.350;2023-02-15T08:33:49;229.30;;;78.20;;
14066;SDS011;7108;42.684;23.350;2023-02-15T08:36:20;239.77;;;78.30;;
14066;SDS011;7108;42.684;23.350;2023-02-15T08:38:47;198.82;;;73.07;;
14066;SDS011;7108;42.684;23.350;2023-02-15T08:41:22;207.20;;;77.47;;
14066;SDS011;7108;42.684;23.350;2023-02-15T08:43:51;250.00;;;80.55;;
14066;SDS011;7108;42.684;23.350;2023-02-15T08:46:20;259.55;;;81.43;;
14066;SDS011;7108;42.684;23.350;2023-02-15T08:48:47;210.63;;;73.30;;
14066;SDS011;7108;42.684;23.350;2023-02-15T08:51:17;204.88;;;71.82;;
14066;SDS011;7108;42.684;23.350;2023-02-15T08:53:46;220.90;;;75.15;;
14066;SDS011;7108;42.684;23.350;2023-02-15T08:56:16;205.32;;;75.65;;
14066;SDS011;7108;42.684;23.350;2023-02-15T08:58:42;195.98;;;72.25;;
14066;SDS011;7108;42.684;23.350;2023-02-15T09:01:09;194.80;;;72.30;;
14066;SDS011;7108;42.684;23.350;2023-02-15T09:03:36;202.85;;;69.88;;
14066;SDS011;7108;42.684;23.350;2023-02-15T09:06:02;209.85;;;77.63;;
14066;SDS011;7108;42.684;23.350;2023-02-15T09:08:28;231.43;;;74.17;;
14066;SDS011;7108;42.684;23.350;2023-02-15T09:10:54;191.80;;;72.90;;
14066;SDS011;7108;42.684;23.350;2023-02-15T09:13:28;205.88;;;73.30;;
14066;SDS011;7108;42.684;23.350;2023-02-15T09:15:58;200.23;;;72.27;;
14066;SDS011;7108;42.684;23.350;2023-02-15T09:18:25;229.70;;;75.20;;
14066;SDS011;7108;42.684;23.350;2023-02-15T09:20:50;204.67;;;71.30;;
14066;SDS011;7108;42.684;23.350;2023-02-15T09:23:16;211.50;;;72.23;;
14066;SDS011;7108;42.684;23.350;2023-02-15T09:25:41;197.67;;;72.03;;
14066;SDS011;7108;42.684;23.350;2023-02-15T09:28:07;193.87;;;70.97;;
14066;SDS011;7108;42.684;23.350;2023-02-15T09:30:33;192.32;;;68.15;;
14066;SDS011;7108;42.684;23.350;2023-02-15T09:32:59;197.82;;;71.22;;
14066;SDS011;7108;42.684;23.350;2023-02-15T09:35:25;206.67;;;74.10;;
14066;SDS011;7108;42.684;23.350;2023-02-15T09:37:50;206.60;;;74.17;;
14066;SDS011;7108;42.684;23.350;2023-02-15T09:40:15;211.03;;;72.97;;
14066;SDS011;7108;42.684;23.350;2023-02-15T09:42:52;205.65;;;73.63;;
14066;SDS011;7108;42.684;23.350;2023-02-15T09:56:08;182.77;;;67.97;;
14066;SDS011;7108;42.684;23.350;2023-02-15T09:59:02;253.15;;;80.07;;
14066;SDS011;7108;42.684;23.350;2023-02-15T10:15:29;234.10;;;76.80;;
14066;SDS011;7108;42.684;23.350;2023-02-15T10:21:04;235.15;;;77.97;;
14066;SDS011;7108;42.684;23.350;2023-02-15T10:23:57;242.60;;;79.10;;
14066;SDS011;7108;42.684;23.350;2023-02-15T10:26:42;245.52;;;80.20;;
14066;SDS011;7108;42.684;23.350;2023-02-15T10:29:17;242.77;;;81.55;;
14066;SDS011;7108;42.684;23.350;2023-02-15T10:40:03;201.25;;;71.47;;
14066;SDS011;7108;42.684;23.350;2023-02-15T10:51:16;201.43;;;73.07;;
14066;SDS011;7108;42.684;23.350;2023-02-15T11:12:47;205.90;;;75.50;;
14066;SDS011;7108;42.684;23.350;2023-02-15T11:15:33;213.13;;;78.70;;
14066;SDS011;7108;42.684;23.350;2023-02-15T11:18:11;200.40;;;75.88;;
14066;SDS011;7108;42.684;23.350;2023-02-15T11:21:04;206.32;;;73.60;;
14066;SDS011;7108;42.684;23.350;2023-02-15T11:23:42;217.15;;;77.53;;
14066;SDS011;7108;42.684;23.350;2023-02-15T11:26:13;210.80;;;75.78;;
14066;SDS011;7108;42.684;23.350;2023-02-15T11:28:57;220.73;;;75.20;;
14066;SDS011;7108;42.684;23.350;2023-02-15T11:31:25;210.38;;;71.65;;
14066;SDS011;7108;42.684;23.350;2023-02-15T11:33:58;202.15;;;75.32;;
14066;SDS011;7108;42.684;23.350;2023-02-15T11:36:34;211.25;;;74.38;;
14066;SDS011;7108;42.684;23.350;2023-02-15T11:39:08;205.05;;;73.90;;
14066;SDS011;7108;42.684;23.350;2023-02-15T11:41:50;217.02;;;75.28;;
14066;SDS011;7108;42.684;23.350;2023-02-15T11:44:20;231.13;;;80.47;;
14066;SDS011;7108;42.684;23.350;2023-02-15T11:46:51;208.02;;;77.57;;
14066;SDS011;7108;42.684;23.350;2023-02-15T11:49:24;229.07;;;77.27;;
14066;SDS011;7108;42.684;23.350;2023-02-15T11:52:03;203.23;;;74.55;;
14066;SDS011;7108;42.684;23.350;2023-02-15T11:54:32;227.55;;;76.90;;
14066;SDS011;7108;42.684;23.350;2023-02-15T12:00:02;217.07;;;73.80;;
14066;SDS011;7108;42.684;23.350;2023-02-15T12:02:35;224.32;;;76.30;;
14066;SDS011;7108;42.684;23.350;2023-02-15T12:05:06;202.20;;;74.22;;
14066;SDS011;7108;42.684;23.350;2023-02-15T12:10:19;217.38;;;76.43;;
14066;SDS011;7108;42.684;23.350;2023-02-15T12:13:07;201.07;;;74.78;;
14066;SDS011;7108;42.684;23.350;2023-02-15T12:15:35;231.60;;;78.45;;
14066;SDS011;7108;42.684;23.350;2023-02-15T12:18:02;205.77;;;75.32;;
14066;SDS011;7108;42.684;23.350;2023-02-15T12:20:29;226.90;;;77.13;;
14066;SDS011;7108;42.684;23.350;2023-02-15T12:28:03;206.57;;;74.68;;
14066;SDS011;7108;42.684;23.350;2023-02-15T12:30:41;225.70;;;79.15;;
14066;SDS011;7108;42.684;23.350;2023-02-15T12:39:22;217.57;;;77.53;;
14066;SDS011;7108;42.684;23.350;2023-02-15T12:42:01;211.75;;;76.43;;
14066;SDS011;7108;42.684;23.350;2023-02-15T12:44:31;228.75;;;77.60;;
14066;SDS011;7108;42.684;23.350;2023-02-15T12:47:03;199.32;;;75.65;;
14066;SDS011;7108;42.684;23.350;2023-02-15T12:49:29;218.02;;;76.35;;
14066;SDS011;7108;42.684;23.350;2023-02-15T12:52:00;220.32;;;77.07;;
14066;SDS011;7108;42.684;23.350;2023-02-15T12:56:56;221.80;;;78.20;;
14066;SDS011;7108;42.684;23.350;2023-02-15T12:59:26;218.95;;;77.80;;
14066;SDS011;7108;42.684;23.350;2023-02-15T13:01:52;207.27;;;75.03;;
14066;SDS011;7108;42.684;23.350;2023-02-15T13:04:25;229.90;;;78.43;;
14066;SDS011;7108;42.684;23.350;2023-02-15T13:06:57;211.63;;;77.38;;
14066;SDS011;7108;42.684;23.350;2023-02-15T13:14:53;219.10;;;77.45;;
14066;SDS011;7108;42.684;23.350;2023-02-15T13:17:23;228.27;;;76.93;;
14066;SDS011;7108;42.684;23.350;2023-02-15T13:19:54;218.55;;;73.72;;
14066;SDS011;7108;42.684;23.350;2023-02-15T13:22:32;237.30;;;81.00;;
14066;SDS011;7108;42.684;23.350;2023-02-15T13:25:14;266.73;;;92.95;;
14066;SDS011;7108;42.684;23.350;2023-02-15T13:27:44;233.35;;;78.20;;
14066;SDS011;7108;42.684;23.350;2023-02-15T13:30:16;220.95;;;77.50;;
14066;SDS011;7108;42.684;23.350;2023-02-15T13:32:48;227.05;;;77.28;;
14066;SDS011;7108;42.684;23.350;2023-02-15T13:35:16;226.10;;;78.22;;
14066;SDS011;7108;42.684;23.350;2023-02-15T13:37:56;247.25;;;77.00;;
14066;SDS011;7108;42.684;23.350;2023-02-15T13:49:05;205.73;;;75.22;;
14066;SDS011;7108;42.684;23.350;2023-02-15T13:54:28;233.48;;;79.88;;
14066;SDS011;7108;42.684;23.350;2023-02-15T14:02:52;239.20;;;77.03;;
14066;SDS011;7108;42.684;23.350;2023-02-15T14:10:55;246.77;;;78.60;;
14066;SDS011;7108;42.684;23.350;2023-02-15T14:19:12;211.63;;;77.15;;
14066;SDS011;7108;42.684;23.350;2023-02-15T14:24:36;236.30;;;80.55;;
14066;SDS011;7108;42.684;23.350;2023-02-15T14:30:03;210.43;;;76.63;;
14066;SDS011;7108;42.684;23.350;2023-02-15T14:32:41;237.85;;;78.18;;
14066;SDS011;7108;42.684;23.350;2023-02-15T14:35:14;224.30;;;78.05;;
14066;SDS011;7108;42.684;23.350;2023-02-15T14:46:34;246.38;;;80.80;;
14066;SDS011;7108;42.684;23.350;2023-02-15T14:56:43;237.38;;;79.35;;
14066;SDS011;7108;42.684;23.350;2023-02-15T15:01:51;278.50;;;86.25;;
14066;SDS011;7108;42.684;23.350;2023-02-15T15:09:46;259.15;;;82.10;;
14066;SDS011;7108;42.684;23.350;2023-02-15T15:14:49;265.50;;;84.10;;
14066;SDS011;7108;42.684;23.350;2023-02-15T15:19:57;256.52;;;83.22;;
14066;SDS011;7108;42.684;23.350;2023-02-15T15:22:23;222.07;;;76.05;;
14066;SDS011;7108;42.684;23.350;2023-02-15T15:46:27;233.88;;;84.60;;
14066;SDS011;7108;42.684;23.350;2023-02-15T15:49:28;219.43;;;80.07;;
14066;SDS011;7108;42.684;23.350;2023-02-15T15:51:56;222.35;;;83.57;;
14066;SDS011;7108;42.684;23.350;2023-02-15T15:54:26;222.65;;;85.13;;
14066;SDS011;7108;42.684;23.350;2023-02-15T15:56:58;231.93;;;85.05;;
14066;SDS011;7108;42.684;23.350;2023-02-15T15:59:36;215.23;;;80.47;;
14066;SDS011;7108;42.684;23.350;2023-02-15T16:02:05;204.05;;;77.75;;
14066;SDS011;7108;42.684;23.350;2023-02-15T16:04:33;215.15;;;77.30;;
14066;SDS011;7108;42.684;23.350;2023-02-15T16:12:25;233.88;;;79.05;;
14066;SDS011;7108;42.684;23.350;2023-02-15T16:14:54;225.20;;;80.10;;
14066;SDS011;7108;42.684;23.350;2023-02-15T16:17:23;227.35;;;79.70;;
14066;SDS011;7108;42.684;23.350;2023-02-15T16:19:48;240.82;;;82.25;;
14066;SDS011;7108;42.684;23.350;2023-02-15T16:22:20;231.40;;;79.75;;
14066;SDS011;7108;42.684;23.350;2023-02-15T16:30:19;222.05;;;81.35;;
14066;SDS011;7108;42.684;23.350;2023-02-15T16:33:03;233.45;;;77.03;;
14066;SDS011;7108;42.684;23.350;2023-02-15T16:35:31;234.18;;;80.00;;
14066;SDS011;7108;42.684;23.350;2023-02-15T16:37:57;199.13;;;73.53;;
14066;SDS011;7108;42.684;23.350;2023-02-15T16:42:49;224.10;;;76.47;;
14066;SDS011;7108;42.684;23.350;2023-02-15T16:45:16;253.93;;;90.43;;
14066;SDS011;7108;42.684;23.350;2023-02-15T16:47:46;293.38;;;96.10;;
14066;SDS011;7108;42.684;23.350;2023-02-15T16:50:17;227.82;;;78.70;;
14066;SDS011;7108;42.684;23.350;2023-02-15T16:52:45;250.32;;;81.10;;
14066;SDS011;7108;42.684;23.350;2023-02-15T16:55:19;240.73;;;78.80;;
14066;SDS011;7108;42.684;23.350;2023-02-15T16:57:47;258.67;;;83.10;;
14066;SDS011;7108;42.684;23.350;2023-02-15T17:00:30;238.70;;;82.03;;
14066;SDS011;7108;42.684;23.350;2023-02-15T17:03:04;218.25;;;77.68;;
14066;SDS011;7108;42.684;23.350;2023-02-15T17:05:51;231.05;;;78.85;;
14066;SDS011;7108;42.684;23.350;2023-02-15T17:11:11;214.27;;;76.45;;
14066;SDS011;7108;42.684;23.350;2023-02-15T17:13:36;206.90;;;76.22;;
14066;SDS011;7108;42.684;23.350;2023-02-15T17:18:29;209.53;;;78.33;;
14066;SDS011;7108;42.684;23.350;2023-02-15T17:21:13;233.70;;;80.20;;
14066;SDS011;7108;42.684;23.350;2023-02-15T17:23:47;230.88;;;79.30;;
14066;SDS011;7108;42.684;23.350;2023-02-15T17:26:19;238.55;;;81.55;;
14066;SDS011;7108;42.684;23.350;2023-02-15T17:28:57;240.65;;;80.57;;
14066;SDS011;7108;42.684;23.350;2023-02-15T17:31:25;227.85;;;82.10;;
14066;SDS011;7108;42.684;23.350;2023-02-15T17:33:54;224.25;;;79.30;;
14066;SDS011;7108;42.684;23.350;2023-02-15T17:36:24;231.40;;;80.38;;
14066;SDS011;7108;42.684;23.350;2023-02-15T17:41:29;228.43;;;80.50;;
14066;SDS011;7108;42.684;23.350;2023-02-15T17:43:56;228.18;;;82.68;;
14066;SDS011;7108;42.684;23.350;2023-02-15T17:46:23;265.15;;;86.43;;
14066;SDS011;7108;42.684;23.350;2023-02-15T17:48:51;262.85;;;83.57;;
14066;SDS011;7108;42.684;23.350;2023-02-15T17:51:21;228.75;;;79.65;;
14066;SDS011;7108;42.684;23.350;2023-02-15T17:53:47;273.50;;;86.68;;
14066;SDS011;7108;42.684;23.350;2023-02-15T17:56:32;249.82;;;81.32;;
14066;SDS011;7108;42.684;23.350;2023-02-15T17:58:58;259.70;;;82.30;;
14066;SDS011;7108;42.684;23.350;2023-02-15T18:01:24;249.20;;;81.90;;
14066;SDS011;7108;42.684;23.350;2023-02-15T18:04:09;250.23;;;82.13;;
14066;SDS011;7108;42.684;23.350;2023-02-15T18:06:55;252.13;;;82.22;;
14066;SDS011;7108;42.684;23.350;2023-02-15T18:09:39;265.10;;;82.57;;
14066;SDS011;7108;42.684;23.350;2023-02-15T18:12:25;246.27;;;79.93;;
14066;SDS011;7108;42.684;23.350;2023-02-15T18:14:52;278.70;;;86.22;;
14066;SDS011;7108;42.684;23.350;2023-02-15T18:17:18;264.83;;;85.90;;
14066;SDS011;7108;42.684;23.350;2023-02-15T18:19:49;270.15;;;83.22;;
14066;SDS011;7108;42.684;23.350;2023-02-15T18:22:16;280.53;;;85.10;;
14066;SDS011;7108;42.684;23.350;2023-02-15T18:24:43;310.58;;;89.43;;
14066;SDS011;7108;42.684;23.350;2023-02-15T18:27:09;246.03;;;80.60;;